• Join FlightAware (Why Join?)
  • Login
  • US Flag 
05:35AM EDT


 

Airport Tracker/Info


-or-


 

Live Flight TrackerFlight Track Log ✈ N6229Q ✈ 26-Jul-2013 ✈ KBED - KBED

Flight Track Log - Related Links

Times and Time Zones

All times are in EDT time to prevent confusion due to time zone crossing. See the N6229Q flight status page for this flight to view local times or setup timezone preferences in your user account.

Time Position Orientation Groundspeed Altitude Reporting Facility
EDT Latitude Longitude Course Direction KTS MPH feet Rate Location/Type
06:48PM 42.4667 -71.3000 304° West 55 63 900  Level KA90
06:49PM 42.4833 -71.3333 304° West 65 75 1,700 480 Climbing KA90
06:50PM 42.4833 -71.3667 270° West 88 101 2,100 120 Climbing KA90
06:51PM 42.4833 -71.4000 270° West 101 116 2,000 -60 Descending KA90
06:52PM 42.5167 -71.3833 20° North 101 116 2,000  Level KA90
06:53PM 42.5500 -71.3833 360° North 113 130 2,000 60 Level KA90
06:54PM 42.5667 -71.3500 56° Northeast 109 125 2,200 240 Climbing KA90
06:55PM 42.5667 -71.3167 90° East 113 130 2,600 420 Climbing KA90
06:56PM 42.5667 -71.2833 90° East 110 127 3,000 180 Climbing KA90
06:57PM 42.5667 -71.2333 90° East 121 139 3,000  Level KA90
06:58PM 42.5667 -71.1833 90° East 120 138 3,000 -60 Level KA90
06:59PM 42.5500 -71.1333 114° Southeast 124 143 2,900 -300 Descending KA90
07:00PM 42.5500 -71.0833 90° East 133 153 2,400 -420 Descending KA90
07:01PM 42.5167 -71.0500 144° Southeast 131 151 2,000 -240 Descending KA90
07:02PM 42.5000 -71.0500 180° South 121 139 2,000  Level KA90
07:03PM 42.4667 -71.0500 180° South 120 138 2,000 -120 Level KA90
07:04PM 42.4500 -71.1000 246° West 100 115 1,800 -120 Descending KA90
07:05PM 42.4500 -71.1333 270° West 98 113 1,800  Level KA90
07:06PM 42.4667 -71.1667 304° West 86 99 1,800 -300 Level KA90
07:07PM 42.4667 -71.2000 270° West 96 110 1,200 -540 Descending KA90
07:08PM 42.4667 -71.2333 270° West 96 110 800 -120 Descending KA90
07:10PM 42.4667 -71.2833 270° West 59 68 1,000 360 Climbing KA90
07:11PM 42.4833 -71.3167 304° West 78 90 1,800 660 Climbing KA90
07:12PM 42.4833 -71.3333 270° West 86 99 2,500 600 Climbing KA90
07:13PM 42.5167 -71.3333 360° North 81 93 3,000 180 Climbing KA90
07:14PM 42.5167 -71.2833 90° East 120 138 3,000  Level KA90
07:15PM 42.5167 -71.2500 90° East 124 143 3,000 -60 Level KA90
07:16PM 42.5000 -71.2000 114° Southeast 125 144 2,900 -360 Descending KA90
07:17PM 42.5000 -71.1500 90° East 130 150 2,300 -480 Descending KA90
07:18PM 42.5000 -71.1000 90° East 130 150 2,000 -180 Descending KA90
07:19PM 42.4833 -71.0667 124° Southeast 117 135 2,000  Level KA90
07:20PM 42.4667 -71.0667 180° South 106 122 2,000 -120 Level KA90
07:21PM 42.4500 -71.1000 236° Southwest 99 114 1,800 -120 Descending KA90
07:22PM 42.4500 -71.1333 270° West 106 122 1,800  Level KA90
07:23PM 42.4667 -71.1667 304° West 100 115 1,800 -300 Level KA90
07:24PM 42.4667 -71.2167 270° West 105 121 1,200 -600 Descending KA90
07:25PM 42.4667 -71.2500 270° West 112 129 600 -120 Descending KA90
07:26PM 42.4667 -71.2833 270° West 68 78 1,000 600 Climbing KA90
07:27PM 42.4833 -71.3167 304° West 91 105 2,100 660 Climbing KA90
07:28PM 42.5000 -71.3167 360° North 83 96 2,600 480 Climbing KA90
07:29PM 42.5167 -71.3167 360° North 101 116 3,000 180 Climbing KA90
07:30PM 42.5500 -71.2667 48° Northeast 114 131 3,000  Level KA90
07:31PM 42.5333 -71.2500 144° Southeast 121 139 3,000  Level KA90
07:32PM 42.5333 -71.2000 90° East 119 137 3,000  Level KA90
07:33PM 42.5333 -71.1500 90° East 119 137 3,000 -240 Level KA90
07:34PM 42.5167 -71.1167 124° Southeast 120 138 2,600 -480 Descending KA90
07:35PM 42.5167 -71.0500 90° East 126 145 2,000 -300 Descending KA90
07:36PM 42.4833 -71.0333 160° South 124 143 2,000  Level KA90
07:37PM 42.4667 -71.0333 180° South 131 151 2,000  Level KA90
07:38PM 42.4500 -71.0667 236° Southwest 96 110 2,000 -60 Level KA90
07:39PM 42.4500 -71.1167 270° West 97 112 1,900 -60 Descending KA90
07:40PM 42.4667 -71.1500 304° West 91 105 1,900 -180 Level KA90
07:41PM 42.4667 -71.1833 270° West 91 105 1,600 -480 Descending KA90
07:42PM 42.4667 -71.2167 270° West 95 109 1,000 -480 Descending KA90
07:43PM 42.4667 -71.2500 270° West 136 157 600 -420 Descending KA90